createdAt,value
2023-12-19T00:13:59.758Z,45.40
2023-12-19T00:29:01.304Z,45.30
2023-12-19T00:44:02.881Z,45.30
2023-12-19T00:59:04.409Z,45.30
2023-12-19T01:14:06.004Z,45.70
2023-12-19T01:29:07.670Z,45.20
2023-12-19T01:44:09.191Z,45.90
2023-12-19T01:59:10.859Z,45.30
2023-12-19T02:14:12.403Z,45.20
2023-12-19T02:29:13.918Z,45.10
2023-12-19T02:44:15.438Z,45.10
2023-12-19T02:59:16.976Z,45.00
2023-12-19T03:14:18.553Z,44.90
2023-12-19T03:29:20.062Z,44.80
2023-12-19T03:44:21.573Z,44.80
2023-12-19T03:59:23.082Z,44.70
2023-12-19T04:14:24.577Z,44.70
2023-12-19T04:29:26.085Z,44.60
2023-12-19T04:44:27.591Z,44.60
2023-12-19T04:59:29.117Z,44.60
2023-12-19T05:14:31.091Z,44.50
2023-12-19T05:29:32.585Z,44.50
2023-12-19T05:44:34.094Z,44.50
2023-12-19T05:59:35.595Z,44.50
2023-12-19T06:14:37.098Z,44.50
2023-12-19T06:29:38.763Z,44.60
2023-12-19T06:44:40.289Z,44.40
2023-12-19T06:59:41.826Z,44.40
2023-12-19T07:14:43.333Z,44.40
2023-12-19T07:29:44.830Z,44.40
2023-12-19T07:44:46.336Z,44.40
2023-12-19T07:59:50.539Z,44.50
2023-12-19T08:14:52.178Z,44.50
2023-12-19T08:29:53.675Z,44.40
2023-12-19T08:44:55.171Z,44.50
2023-12-19T08:59:56.661Z,44.60
2023-12-19T09:14:58.175Z,44.70
2023-12-19T09:29:59.791Z,44.80
2023-12-19T09:45:01.305Z,45.20
2023-12-19T10:00:02.837Z,46.10
2023-12-19T10:15:04.362Z,45.60
2023-12-19T10:30:05.888Z,45.60
2023-12-19T10:45:07.428Z,45.80
2023-12-19T11:00:10.096Z,45.70
2023-12-19T11:15:11.610Z,45.80
2023-12-19T11:30:13.152Z,45.70
2023-12-19T11:45:14.684Z,45.70
2023-12-19T12:00:16.192Z,45.80
2023-12-19T12:15:17.743Z,45.70
2023-12-19T12:30:19.270Z,45.70
2023-12-19T12:45:20.787Z,45.70
2023-12-19T13:00:26.775Z,45.70
2023-12-19T13:15:28.997Z,45.70
2023-12-19T13:30:30.597Z,45.70
2023-12-19T13:45:32.241Z,45.60
2023-12-19T14:00:33.773Z,45.70
2023-12-19T14:15:35.428Z,45.70
2023-12-19T14:30:37.036Z,45.70
2023-12-19T14:45:38.667Z,45.90
2023-12-19T15:00:40.222Z,46.10
2023-12-19T15:15:41.800Z,46.00
2023-12-19T15:30:43.379Z,46.30
2023-12-19T15:45:44.964Z,46.10
2023-12-19T16:00:46.647Z,46.10
2023-12-19T16:15:48.293Z,46.20
2023-12-19T16:30:49.865Z,46.40
2023-12-19T16:45:51.521Z,46.50
2023-12-19T17:00:53.130Z,46.70
2023-12-19T17:15:54.753Z,46.70
2023-12-19T17:30:56.622Z,46.80
2023-12-19T17:45:58.217Z,46.80
2023-12-19T18:00:59.846Z,47.20
2023-12-19T18:16:02.677Z,47.50
2023-12-19T18:31:05.449Z,47.80
2023-12-19T18:46:09.077Z,48.00
2023-12-19T19:01:10.857Z,48.00
2023-12-19T19:16:12.561Z,48.00
2023-12-19T19:31:14.222Z,48.00
2023-12-19T19:46:16.025Z,48.00
2023-12-19T20:01:17.806Z,48.00
2023-12-19T20:16:19.567Z,48.20
2023-12-19T20:31:21.330Z,48.20
2023-12-19T20:46:23.108Z,48.20
2023-12-19T21:01:24.723Z,48.20
2023-12-19T21:16:26.269Z,48.20
2023-12-19T21:31:27.833Z,48.20
2023-12-19T21:46:29.395Z,48.20
2023-12-19T22:01:30.955Z,48.30
2023-12-19T22:16:32.499Z,48.40
2023-12-19T22:31:34.056Z,48.40
2023-12-19T22:46:35.564Z,48.50
2023-12-19T23:01:43.130Z,48.40
2023-12-19T23:16:51.929Z,48.40
2023-12-19T23:31:53.488Z,48.40
2023-12-19T23:46:55.047Z,48.30
